PWSweather.com
Personal Weather Stations
Station Observations
WD4JKH
Forsyth, GA 31029

Forsyth, GA 31029

Lat: 33.033225, Lon: -83.927995

Elevation: 709

Station Type: Davis Vantage VUE

High Low Average
Temperature 90.8°F32.7°C 72.2°F22.3°C 79.8°F26.6°C
Dew Point 77.8°F25.4°C 69.1°F20.6°C 72.1°F22.3°C
Winds 8.8 mph 14.2 kmh Calm Calm 2.0 mph SSE3.2 kmh SSE
Wind Gusts 22.0 mph35.4 kmh -- 5.0 mph8.0 kmh
Humidity 90% 55% 78%
Pressure 30.12 in1020.0 mb 29.98 in1015.2 mb -
Precipitation 0.19 in4.8 mm - -
Hour Temp Dew Point Humidity Winds Wind Gusts Pressure Precip Precip Rate Daily Precip Total
12:03 AM 78.9°F26.1°C 71.2°F21.8°C 77% 2.9 mph SE4.7 kmh SE 10.0 mph16.1 kmh 29.99 in1015.6 mb 0.00 in0.0 mm 0.00 in0.0 mm 0.00 in0.0 mm
12:08 AM 78.7°F25.9°C 71.4°F21.9°C 78% 3.3 mph SE5.3 kmh SE 10.0 mph16.1 kmh 29.99 in1015.6 mb 0.00 in0.0 mm 0.00 in0.0 mm 0.00 in0.0 mm
12:13 AM 78.6°F25.9°C 71.3°F21.8°C 78% 3.4 mph SE5.5 kmh SE 10.0 mph16.1 kmh 29.99 in1015.6 mb 0.00 in0.0 mm 0.00 in0.0 mm 0.00 in0.0 mm
12:18 AM 78.4°F25.8°C 71.5°F21.9°C 79% 3.5 mph SE5.6 kmh SE 10.0 mph16.1 kmh 29.99 in1015.6 mb 0.00 in0.0 mm 0.00 in0.0 mm 0.00 in0.0 mm
12:23 AM 78.3°F25.7°C 71.2°F21.8°C 79% 3.0 mph SE4.8 kmh SE 9.0 mph14.5 kmh 29.99 in1015.6 mb 0.00 in0.0 mm 0.00 in0.0 mm 0.00 in0.0 mm
12:28 AM 78.1°F25.6°C 71.5°F21.9°C 80% 5.0 mph SE8.0 kmh SE 11.0 mph17.7 kmh 29.99 in1015.6 mb 0.00 in0.0 mm 0.00 in0.0 mm 0.00 in0.0 mm
12:33 AM 78.1°F25.6°C 71.5°F21.9°C 80% 2.4 mph SE3.9 kmh SE 11.0 mph17.7 kmh 29.99 in1015.6 mb 0.00 in0.0 mm 0.00 in0.0 mm 0.00 in0.0 mm
12:38 AM 77.9°F25.5°C 71.3°F21.8°C 80% 3.6 mph SE5.8 kmh SE 11.0 mph17.7 kmh 29.99 in1015.6 mb 0.00 in0.0 mm 0.00 in0.0 mm 0.00 in0.0 mm
12:43 AM 77.8°F25.4°C 71.6°F22.0°C 81% 4.1 mph SE6.6 kmh SE 11.0 mph17.7 kmh 29.99 in1015.6 mb 0.00 in0.0 mm 0.00 in0.0 mm 0.00 in0.0 mm
12:48 AM 77.7°F25.4°C 71.5°F21.9°C 81% 2.2 mph SE3.5 kmh SE 10.0 mph16.1 kmh 29.99 in1015.6 mb 0.00 in0.0 mm 0.00 in0.0 mm 0.00 in0.0 mm
12:53 AM 77.6°F25.3°C 71.7°F22.1°C 82% 2.9 mph SSE4.7 kmh SSE 10.0 mph16.1 kmh 29.99 in1015.6 mb 0.00 in0.0 mm 0.00 in0.0 mm 0.00 in0.0 mm
12:58 AM 77.4°F25.2°C 71.6°F22.0°C 82% 1.7 mph SE2.7 kmh SE 10.0 mph16.1 kmh 29.98 in1015.2 mb 0.00 in0.0 mm 0.00 in0.0 mm 0.00 in0.0 mm
01:03 AM 77.3°F25.2°C 71.5°F21.9°C 82% 2.8 mph SE4.5 kmh SE 10.0 mph16.1 kmh 29.98 in1015.2 mb 0.00 in0.0 mm 0.00 in0.0 mm 0.00 in0.0 mm
01:08 AM 77.2°F25.1°C 71.4°F21.9°C 82% 2.5 mph SSE4.0 kmh SSE 9.0 mph14.5 kmh 29.99 in1015.6 mb 0.00 in0.0 mm 0.00 in0.0 mm 0.00 in0.0 mm
01:13 AM 77.1°F25.1°C 71.5°F21.9°C 83% 3.8 mph SE6.1 kmh SE 9.0 mph14.5 kmh 29.99 in1015.6 mb 0.00 in0.0 mm 0.00 in0.0 mm 0.00 in0.0 mm
01:18 AM 77.1°F25.1°C 71.6°F22.0°C 83% 2.5 mph S4.0 kmh S 9.0 mph14.5 kmh 29.99 in1015.6 mb 0.00 in0.0 mm 0.00 in0.0 mm 0.00 in0.0 mm
01:23 AM 77.0°F25.0°C 71.5°F21.9°C 83% 2.1 mph SSE3.4 kmh SSE 9.0 mph14.5 kmh 29.99 in1015.6 mb 0.00 in0.0 mm 0.00 in0.0 mm 0.00 in0.0 mm
01:28 AM 76.8°F24.9°C 71.3°F21.8°C 83% 3.1 mph SE5.0 kmh SE 9.0 mph14.5 kmh 29.99 in1015.6 mb 0.00 in0.0 mm 0.00 in0.0 mm 0.00 in0.0 mm
01:33 AM 76.7°F24.8°C 71.6°F22.0°C 84% 1.9 mph SSE3.1 kmh SSE 8.0 mph12.9 kmh 29.99 in1015.6 mb 0.00 in0.0 mm 0.00 in0.0 mm 0.00 in0.0 mm
01:38 AM 76.6°F24.8°C 71.5°F21.9°C 84% 2.2 mph SE3.5 kmh SE 8.0 mph12.9 kmh 29.99 in1015.6 mb 0.00 in0.0 mm 0.00 in0.0 mm 0.00 in0.0 mm
01:43 AM 76.5°F24.7°C 71.3°F21.8°C 84% 2.4 mph SE3.9 kmh SE 8.0 mph12.9 kmh 29.99 in1015.6 mb 0.00 in0.0 mm 0.00 in0.0 mm 0.00 in0.0 mm
01:48 AM 76.4°F24.7°C 71.3°F21.8°C 84% 3.4 mph SE5.5 kmh SE 9.0 mph14.5 kmh 29.99 in1015.6 mb 0.00 in0.0 mm 0.00 in0.0 mm 0.00 in0.0 mm
01:53 AM 76.3°F24.6°C 71.2°F21.8°C 84% 2.4 mph SE3.9 kmh SE 9.0 mph14.5 kmh 29.99 in1015.6 mb 0.00 in0.0 mm 0.00 in0.0 mm 0.00 in0.0 mm
01:58 AM 76.2°F24.6°C 71.4°F21.9°C 85% 3.0 mph SE4.8 kmh SE 9.0 mph14.5 kmh 29.99 in1015.6 mb 0.00 in0.0 mm 0.00 in0.0 mm 0.00 in0.0 mm
02:03 AM 76.2°F24.6°C 71.4°F21.9°C 85% 1.8 mph S2.9 kmh S 9.0 mph14.5 kmh 29.99 in1015.6 mb 0.00 in0.0 mm 0.00 in0.0 mm 0.00 in0.0 mm
02:08 AM 76.1°F24.5°C 71.3°F21.8°C 85% 1.9 mph SSW3.1 kmh SSW 7.0 mph11.3 kmh 29.99 in1015.6 mb 0.00 in0.0 mm 0.00 in0.0 mm 0.00 in0.0 mm
02:13 AM 76.0°F24.4°C 71.2°F21.8°C 85% 2.0 mph SSE3.2 kmh SSE 7.0 mph11.3 kmh 29.99 in1015.6 mb 0.00 in0.0 mm 0.00 in0.0 mm 0.00 in0.0 mm
02:18 AM 75.9°F24.4°C 71.1°F21.7°C 85% 1.7 mph SSW2.7 kmh SSW 6.0 mph9.7 kmh 30.00 in1015.9 mb 0.00 in0.0 mm 0.00 in0.0 mm 0.00 in0.0 mm
02:23 AM 75.8°F24.3°C 71.0°F21.7°C 85% 1.5 mph SE2.4 kmh SE 6.0 mph9.7 kmh 30.00 in1015.9 mb 0.00 in0.0 mm 0.00 in0.0 mm 0.00 in0.0 mm
02:28 AM 75.7°F24.3°C 71.2°F21.8°C 86% 1.4 mph ESE2.3 kmh ESE 5.0 mph8.0 kmh 30.00 in1015.9 mb 0.00 in0.0 mm 0.00 in0.0 mm 0.00 in0.0 mm
02:33 AM 75.5°F24.2°C 71.0°F21.7°C 86% 1.4 mph SSE2.3 kmh SSE 5.0 mph8.0 kmh 30.00 in1015.9 mb 0.00 in0.0 mm 0.00 in0.0 mm 0.00 in0.0 mm
02:38 AM 75.4°F24.1°C 70.9°F21.6°C 86% 1.9 mph SSE3.1 kmh SSE 4.0 mph6.4 kmh 30.00 in1015.9 mb 0.00 in0.0 mm 0.00 in0.0 mm 0.00 in0.0 mm
02:43 AM 75.4°F24.1°C 70.9°F21.6°C 86% 1.4 mph SE2.3 kmh SE 4.0 mph6.4 kmh 30.00 in1015.9 mb 0.00 in0.0 mm 0.00 in0.0 mm 0.00 in0.0 mm
02:48 AM 75.3°F24.1°C 70.8°F21.6°C 86% 1.9 mph SE3.1 kmh SE 5.0 mph8.0 kmh 30.00 in1015.9 mb 0.00 in0.0 mm 0.00 in0.0 mm 0.00 in0.0 mm
02:53 AM 75.2°F24.0°C 70.8°F21.6°C 86% 2.2 mph SE3.5 kmh SE 6.0 mph9.7 kmh 30.00 in1015.9 mb 0.00 in0.0 mm 0.00 in0.0 mm 0.00 in0.0 mm
02:58 AM 75.1°F23.9°C 70.7°F21.5°C 86% 2.4 mph SE3.9 kmh SE 6.0 mph9.7 kmh 29.99 in1015.6 mb 0.00 in0.0 mm 0.00 in0.0 mm 0.00 in0.0 mm
03:03 AM 75.1°F23.9°C 70.7°F21.5°C 86% 1.5 mph S2.4 kmh S 6.0 mph9.7 kmh 30.00 in1015.9 mb 0.00 in0.0 mm 0.00 in0.0 mm 0.00 in0.0 mm
03:08 AM 75.0°F23.9°C 70.9°F21.6°C 87% 1.8 mph SE2.9 kmh SE 6.0 mph9.7 kmh 30.00 in1015.9 mb 0.00 in0.0 mm 0.00 in0.0 mm 0.00 in0.0 mm
03:13 AM 74.9°F23.8°C 70.8°F21.6°C 87% 1.0 mph SE1.6 kmh SE 5.0 mph8.0 kmh 30.00 in1015.9 mb 0.00 in0.0 mm 0.00 in0.0 mm 0.00 in0.0 mm
03:18 AM 74.8°F23.8°C 70.7°F21.5°C 87% 1.6 mph SSE2.6 kmh SSE 5.0 mph8.0 kmh 30.00 in1015.9 mb 0.00 in0.0 mm 0.00 in0.0 mm 0.00 in0.0 mm
03:23 AM 74.7°F23.7°C 70.6°F21.4°C 87% 1.2 mph SSE1.9 kmh SSE 5.0 mph8.0 kmh 30.00 in1015.9 mb 0.00 in0.0 mm 0.00 in0.0 mm 0.00 in0.0 mm
03:28 AM 74.6°F23.7°C 70.5°F21.4°C 87% 1.8 mph SSE2.9 kmh SSE 5.0 mph8.0 kmh 30.00 in1015.9 mb 0.00 in0.0 mm 0.00 in0.0 mm 0.00 in0.0 mm
03:33 AM 74.6°F23.7°C 70.5°F21.4°C 87% 1.8 mph SSE2.9 kmh SSE 5.0 mph8.0 kmh 30.00 in1015.9 mb 0.00 in0.0 mm 0.00 in0.0 mm 0.00 in0.0 mm
03:38 AM 74.5°F23.6°C 70.4°F21.3°C 87% 2.2 mph SE3.5 kmh SE 5.0 mph8.0 kmh 30.00 in1015.9 mb 0.00 in0.0 mm 0.00 in0.0 mm 0.00 in0.0 mm
03:43 AM 74.5°F23.6°C 70.4°F21.3°C 87% 1.1 mph SSW1.8 kmh SSW 5.0 mph8.0 kmh 30.00 in1015.9 mb 0.00 in0.0 mm 0.00 in0.0 mm 0.00 in0.0 mm
03:48 AM 74.4°F23.6°C 70.3°F21.3°C 87% 1.6 mph SSE2.6 kmh SSE 5.0 mph8.0 kmh 30.00 in1015.9 mb 0.00 in0.0 mm 0.00 in0.0 mm 0.00 in0.0 mm
03:53 AM 74.3°F23.5°C 70.2°F21.2°C 87% 1.7 mph SSE2.7 kmh SSE 4.0 mph6.4 kmh 30.00 in1015.9 mb 0.00 in0.0 mm 0.00 in0.0 mm 0.00 in0.0 mm
03:58 AM 74.3°F23.5°C 70.2°F21.2°C 87% 1.8 mph SE2.9 kmh SE 6.0 mph9.7 kmh 30.00 in1015.9 mb 0.00 in0.0 mm 0.00 in0.0 mm 0.00 in0.0 mm
04:03 AM 74.2°F23.4°C 70.1°F21.2°C 87% 1.3 mph SE2.1 kmh SE 6.0 mph9.7 kmh 30.00 in1015.9 mb 0.00 in0.0 mm 0.00 in0.0 mm 0.00 in0.0 mm
04:08 AM 74.2°F23.4°C 70.1°F21.2°C 87% 2.4 mph SE3.9 kmh SE 6.0 mph9.7 kmh 30.00 in1015.9 mb 0.00 in0.0 mm 0.00 in0.0 mm 0.00 in0.0 mm
04:12 AM 74.1°F23.4°C 70.0°F21.1°C 87% 1.3 mph SSE2.1 kmh SSE 6.0 mph9.7 kmh 30.00 in1015.9 mb 0.00 in0.0 mm 0.00 in0.0 mm 0.00 in0.0 mm
04:17 AM 74.0°F23.3°C 69.9°F21.1°C 87% 1.3 mph SE2.1 kmh SE 5.0 mph8.0 kmh 30.00 in1015.9 mb 0.00 in0.0 mm 0.00 in0.0 mm 0.00 in0.0 mm
04:22 AM 73.9°F23.3°C 70.1°F21.2°C 88% 1.6 mph SE2.6 kmh SE 5.0 mph8.0 kmh 30.00 in1015.9 mb 0.00 in0.0 mm 0.00 in0.0 mm 0.00 in0.0 mm
04:27 AM 73.8°F23.2°C 70.0°F21.1°C 88% 1.7 mph S2.7 kmh S 4.0 mph6.4 kmh 30.01 in1016.3 mb 0.00 in0.0 mm 0.00 in0.0 mm 0.00 in0.0 mm
04:32 AM 73.8°F23.2°C 70.0°F21.1°C 88% 1.6 mph SE2.6 kmh SE 4.0 mph6.4 kmh 30.01 in1016.3 mb 0.00 in0.0 mm 0.00 in0.0 mm 0.00 in0.0 mm
04:37 AM 73.7°F23.2°C 69.9°F21.1°C 88% 1.7 mph SE2.7 kmh SE 4.0 mph6.4 kmh 30.01 in1016.3 mb 0.00 in0.0 mm 0.00 in0.0 mm 0.00 in0.0 mm
04:42 AM 73.7°F23.2°C 69.9°F21.1°C 88% 2.1 mph SE3.4 kmh SE 4.0 mph6.4 kmh 30.01 in1016.3 mb 0.00 in0.0 mm 0.00 in0.0 mm 0.00 in0.0 mm
04:47 AM 73.6°F23.1°C 69.8°F21.0°C 88% 2.0 mph SSE3.2 kmh SSE 4.0 mph6.4 kmh 30.01 in1016.3 mb 0.00 in0.0 mm 0.00 in0.0 mm 0.00 in0.0 mm
04:52 AM 73.6°F23.1°C 69.8°F21.0°C 88% 1.6 mph SE2.6 kmh SE 4.0 mph6.4 kmh 30.01 in1016.3 mb 0.00 in0.0 mm 0.00 in0.0 mm 0.00 in0.0 mm
04:57 AM 73.5°F23.1°C 69.7°F20.9°C 88% 3.0 mph SSE4.8 kmh SSE 7.0 mph11.3 kmh 30.02 in1016.6 mb 0.00 in0.0 mm 0.00 in0.0 mm 0.00 in0.0 mm
05:02 AM 73.5°F23.1°C 69.7°F20.9°C 88% 2.1 mph SE3.4 kmh SE 7.0 mph11.3 kmh 30.02 in1016.6 mb 0.00 in0.0 mm 0.00 in0.0 mm 0.00 in0.0 mm
05:07 AM 73.5°F23.1°C 69.7°F20.9°C 88% 1.3 mph SE2.1 kmh SE 7.0 mph11.3 kmh 30.02 in1016.6 mb 0.00 in0.0 mm 0.00 in0.0 mm 0.00 in0.0 mm
05:12 AM 73.4°F23.0°C 69.6°F20.9°C 88% 1.9 mph SE3.1 kmh SE 7.0 mph11.3 kmh 30.02 in1016.6 mb 0.00 in0.0 mm 0.00 in0.0 mm 0.00 in0.0 mm
05:17 AM 73.3°F22.9°C 69.5°F20.8°C 88% 1.5 mph SE2.4 kmh SE 6.0 mph9.7 kmh 30.03 in1016.9 mb 0.00 in0.0 mm 0.00 in0.0 mm 0.00 in0.0 mm
05:22 AM 73.2°F22.9°C 69.4°F20.8°C 88% 1.3 mph SE2.1 kmh SE 4.0 mph6.4 kmh 30.03 in1016.9 mb 0.00 in0.0 mm 0.00 in0.0 mm 0.00 in0.0 mm
05:27 AM 73.1°F22.8°C 69.3°F20.7°C 88% 1.3 mph SE2.1 kmh SE 4.0 mph6.4 kmh 30.03 in1016.9 mb 0.00 in0.0 mm 0.00 in0.0 mm 0.00 in0.0 mm
05:32 AM 73.0°F22.8°C 69.6°F20.9°C 89% 2.3 mph ESE3.7 kmh ESE 4.0 mph6.4 kmh 30.03 in1016.9 mb 0.00 in0.0 mm 0.00 in0.0 mm 0.00 in0.0 mm
05:37 AM 73.0°F22.8°C 69.6°F20.9°C 89% 2.5 mph ESE4.0 kmh ESE 5.0 mph8.0 kmh 30.04 in1017.3 mb 0.00 in0.0 mm 0.00 in0.0 mm 0.00 in0.0 mm
05:42 AM 72.9°F22.7°C 69.5°F20.8°C 89% 1.8 mph SE2.9 kmh SE 5.0 mph8.0 kmh 30.04 in1017.3 mb 0.00 in0.0 mm 0.00 in0.0 mm 0.00 in0.0 mm
05:47 AM 72.8°F22.7°C 69.4°F20.8°C 89% 1.6 mph ESE2.6 kmh ESE 5.0 mph8.0 kmh 30.04 in1017.3 mb 0.00 in0.0 mm 0.00 in0.0 mm 0.00 in0.0 mm
05:52 AM 72.7°F22.6°C 69.3°F20.7°C 89% 1.9 mph SE3.1 kmh SE 5.0 mph8.0 kmh 30.04 in1017.3 mb 0.00 in0.0 mm 0.00 in0.0 mm 0.00 in0.0 mm
05:57 AM 72.6°F22.6°C 69.2°F20.7°C 89% 2.2 mph SE3.5 kmh SE 5.0 mph8.0 kmh 30.04 in1017.3 mb 0.00 in0.0 mm 0.00 in0.0 mm 0.00 in0.0 mm
06:02 AM 72.5°F22.5°C 69.1°F20.6°C 89% 2.2 mph SE3.5 kmh SE 5.0 mph8.0 kmh 30.04 in1017.3 mb 0.00 in0.0 mm 0.00 in0.0 mm 0.00 in0.0 mm
06:07 AM 72.4°F22.4°C 69.3°F20.7°C 90% 2.3 mph SE3.7 kmh SE 5.0 mph8.0 kmh 30.05 in1017.6 mb 0.00 in0.0 mm 0.00 in0.0 mm 0.00 in0.0 mm
06:12 AM 72.4°F22.4°C 69.3°F20.7°C 90% 2.6 mph ESE4.2 kmh ESE 6.0 mph9.7 kmh 30.05 in1017.6 mb 0.00 in0.0 mm 0.00 in0.0 mm 0.00 in0.0 mm
06:17 AM 72.3°F22.4°C 69.2°F20.7°C 90% 1.8 mph SE2.9 kmh SE 6.0 mph9.7 kmh 30.05 in1017.6 mb 0.00 in0.0 mm 0.00 in0.0 mm 0.00 in0.0 mm
06:22 AM 72.3°F22.4°C 69.2°F20.7°C 90% 2.2 mph SE3.5 kmh SE 6.0 mph9.7 kmh 30.05 in1017.6 mb 0.00 in0.0 mm 0.00 in0.0 mm 0.00 in0.0 mm
06:27 AM 72.2°F22.3°C 69.1°F20.6°C 90% 2.7 mph SE4.3 kmh SE 6.0 mph9.7 kmh 30.05 in1017.6 mb 0.00 in0.0 mm 0.00 in0.0 mm 0.00 in0.0 mm
06:32 AM 72.2°F22.3°C 69.1°F20.6°C 90% 2.0 mph SE3.2 kmh SE 6.0 mph9.7 kmh 30.06 in1017.9 mb 0.00 in0.0 mm 0.00 in0.0 mm 0.00 in0.0 mm
06:37 AM 72.2°F22.3°C 69.1°F20.6°C 90% Calm Calm 6.0 mph9.7 kmh 30.06 in1017.9 mb 0.00 in0.0 mm 0.00 in0.0 mm 0.00 in0.0 mm
06:42 AM 72.2°F22.3°C 69.1°F20.6°C 90% 1.6 mph SE2.6 kmh SE 4.0 mph6.4 kmh 30.06 in1017.9 mb 0.00 in0.0 mm 0.00 in0.0 mm 0.00 in0.0 mm
06:47 AM 72.2°F22.3°C 69.1°F20.6°C 90% 1.4 mph ESE2.3 kmh ESE 5.0 mph8.0 kmh 30.06 in1017.9 mb 0.00 in0.0 mm 0.00 in0.0 mm 0.00 in0.0 mm
06:52 AM 72.3°F22.4°C 69.2°F20.7°C 90% 2.4 mph SE3.9 kmh SE 5.0 mph8.0 kmh 30.06 in1017.9 mb 0.00 in0.0 mm 0.00 in0.0 mm 0.00 in0.0 mm
06:57 AM 72.4°F22.4°C 69.3°F20.7°C 90% 2.0 mph SE3.2 kmh SE 5.0 mph8.0 kmh 30.07 in1018.3 mb 0.00 in0.0 mm 0.00 in0.0 mm 0.00 in0.0 mm
07:02 AM 72.4°F22.4°C 69.3°F20.7°C 90% 1.7 mph SE2.7 kmh SE 5.0 mph8.0 kmh 30.07 in1018.3 mb 0.00 in0.0 mm 0.00 in0.0 mm 0.00 in0.0 mm
07:07 AM 72.6°F22.6°C 69.5°F20.8°C 90% 1.2 mph SE1.9 kmh SE 5.0 mph8.0 kmh 30.07 in1018.3 mb 0.00 in0.0 mm 0.00 in0.0 mm 0.00 in0.0 mm
07:12 AM 72.7°F22.6°C 69.6°F20.9°C 90% 2.1 mph SE3.4 kmh SE 4.0 mph6.4 kmh 30.07 in1018.3 mb 0.00 in0.0 mm 0.00 in0.0 mm 0.00 in0.0 mm
07:17 AM 72.9°F22.7°C 69.8°F21.0°C 90% 1.8 mph SE2.9 kmh SE 4.0 mph6.4 kmh 30.07 in1018.3 mb 0.00 in0.0 mm 0.00 in0.0 mm 0.00 in0.0 mm
07:22 AM 73.0°F22.8°C 69.6°F20.9°C 89% 2.3 mph SE3.7 kmh SE 6.0 mph9.7 kmh 30.07 in1018.3 mb 0.00 in0.0 mm 0.00 in0.0 mm 0.00 in0.0 mm
07:27 AM 73.1°F22.8°C 69.7°F20.9°C 89% 2.5 mph SE4.0 kmh SE 6.0 mph9.7 kmh 30.08 in1018.6 mb 0.00 in0.0 mm 0.00 in0.0 mm 0.00 in0.0 mm
07:32 AM 73.2°F22.9°C 69.8°F21.0°C 89% 2.1 mph SE3.4 kmh SE 6.0 mph9.7 kmh 30.08 in1018.6 mb 0.00 in0.0 mm 0.00 in0.0 mm 0.00 in0.0 mm
07:37 AM 73.4°F23.0°C 70.0°F21.1°C 89% 1.7 mph SE2.7 kmh SE 6.0 mph9.7 kmh 30.08 in1018.6 mb 0.00 in0.0 mm 0.00 in0.0 mm 0.00 in0.0 mm
07:42 AM 73.5°F23.1°C 70.1°F21.2°C 89% 2.5 mph SE4.0 kmh SE 5.0 mph8.0 kmh 30.08 in1018.6 mb 0.00 in0.0 mm 0.00 in0.0 mm 0.00 in0.0 mm
07:47 AM 73.7°F23.2°C 70.3°F21.3°C 89% 2.7 mph SE4.3 kmh SE 5.0 mph8.0 kmh 30.09 in1019.0 mb 0.00 in0.0 mm 0.00 in0.0 mm 0.00 in0.0 mm
07:52 AM 73.8°F23.2°C 70.0°F21.1°C 88% 1.0 mph SE1.6 kmh SE 5.0 mph8.0 kmh 30.09 in1019.0 mb 0.00 in0.0 mm 0.00 in0.0 mm 0.00 in0.0 mm
07:57 AM 74.1°F23.4°C 70.3°F21.3°C 88% 1.2 mph SE1.9 kmh SE 5.0 mph8.0 kmh 30.09 in1019.0 mb 0.00 in0.0 mm 0.00 in0.0 mm 0.00 in0.0 mm
08:02 AM 74.3°F23.5°C 70.5°F21.4°C 88% 1.0 mph SE1.6 kmh SE 5.0 mph8.0 kmh 30.09 in1019.0 mb 0.00 in0.0 mm 0.00 in0.0 mm 0.00 in0.0 mm
08:07 AM 74.5°F23.6°C 70.4°F21.3°C 87% 1.0 mph E1.6 kmh E 4.0 mph6.4 kmh 30.09 in1019.0 mb 0.00 in0.0 mm 0.00 in0.0 mm 0.00 in0.0 mm
08:12 AM 74.6°F23.7°C 70.5°F21.4°C 87% 2.2 mph SE3.5 kmh SE 6.0 mph9.7 kmh 30.09 in1019.0 mb 0.00 in0.0 mm 0.00 in0.0 mm 0.00 in0.0 mm
08:17 AM 74.6°F23.7°C 70.5°F21.4°C 87% 2.3 mph SE3.7 kmh SE 6.0 mph9.7 kmh 30.09 in1019.0 mb 0.00 in0.0 mm 0.00 in0.0 mm 0.00 in0.0 mm
08:22 AM 74.9°F23.8°C 70.8°F21.6°C 87% 2.3 mph SSE3.7 kmh SSE 6.0 mph9.7 kmh 30.09 in1019.0 mb 0.00 in0.0 mm 0.00 in0.0 mm 0.00 in0.0 mm
08:27 AM 75.1°F23.9°C 71.0°F21.7°C 87% 3.2 mph SE5.1 kmh SE 7.0 mph11.3 kmh 30.10 in1019.3 mb 0.00 in0.0 mm 0.00 in0.0 mm 0.00 in0.0 mm
08:32 AM 75.3°F24.1°C 71.2°F21.8°C 87% 3.4 mph ESE5.5 kmh ESE 7.0 mph11.3 kmh 30.10 in1019.3 mb 0.00 in0.0 mm 0.00 in0.0 mm 0.00 in0.0 mm
08:37 AM 75.5°F24.2°C 71.4°F21.9°C 87% 2.6 mph SE4.2 kmh SE 7.0 mph11.3 kmh 30.10 in1019.3 mb 0.00 in0.0 mm 0.00 in0.0 mm 0.00 in0.0 mm
08:42 AM 75.8°F24.3°C 71.3°F21.8°C 86% 1.2 mph ESE1.9 kmh ESE 7.0 mph11.3 kmh 30.10 in1019.3 mb 0.00 in0.0 mm 0.00 in0.0 mm 0.00 in0.0 mm
08:47 AM 76.0°F24.4°C 71.5°F21.9°C 86% 1.9 mph SW3.1 kmh SW 6.0 mph9.7 kmh 30.10 in1019.3 mb 0.00 in0.0 mm 0.00 in0.0 mm 0.00 in0.0 mm
08:52 AM 76.4°F24.7°C 71.9°F22.2°C 86% 2.6 mph SE4.2 kmh SE 6.0 mph9.7 kmh 30.10 in1019.3 mb 0.00 in0.0 mm 0.00 in0.0 mm 0.00 in0.0 mm
08:57 AM 76.9°F24.9°C 72.1°F22.3°C 85% 1.6 mph SW2.6 kmh SW 6.0 mph9.7 kmh 30.10 in1019.3 mb 0.00 in0.0 mm 0.00 in0.0 mm 0.00 in0.0 mm
09:02 AM 77.4°F25.2°C 72.6°F22.6°C 85% 2.9 mph S4.7 kmh S 7.0 mph11.3 kmh 30.10 in1019.3 mb 0.00 in0.0 mm 0.00 in0.0 mm 0.00 in0.0 mm
09:07 AM 77.8°F25.4°C 72.3°F22.4°C 83% 1.3 mph SE2.1 kmh SE 7.0 mph11.3 kmh 30.10 in1019.3 mb 0.00 in0.0 mm 0.00 in0.0 mm 0.00 in0.0 mm
09:11 AM 78.3°F25.7°C 72.8°F22.7°C 83% 1.8 mph SW2.9 kmh SW 7.0 mph11.3 kmh 30.10 in1019.3 mb 0.00 in0.0 mm 0.00 in0.0 mm 0.00 in0.0 mm
09:16 AM 78.5°F25.8°C 72.6°F22.6°C 82% 1.5 mph SSE2.4 kmh SSE 7.0 mph11.3 kmh 30.10 in1019.3 mb 0.00 in0.0 mm 0.00 in0.0 mm 0.00 in0.0 mm
09:21 AM 78.9°F26.1°C 73.0°F22.8°C 82% 1.5 mph SE2.4 kmh SE 6.0 mph9.7 kmh 30.10 in1019.3 mb 0.00 in0.0 mm 0.00 in0.0 mm 0.00 in0.0 mm
09:26 AM 79.3°F26.3°C 73.1°F22.8°C 81% 1.7 mph SW2.7 kmh SW 5.0 mph8.0 kmh 30.10 in1019.3 mb 0.00 in0.0 mm 0.00 in0.0 mm 0.00 in0.0 mm
09:31 AM 79.7°F26.5°C 73.1°F22.8°C 80% 1.3 mph SSW2.1 kmh SSW 4.0 mph6.4 kmh 30.10 in1019.3 mb 0.00 in0.0 mm 0.00 in0.0 mm 0.00 in0.0 mm
09:36 AM 79.9°F26.6°C 73.3°F22.9°C 80% 1.2 mph SW1.9 kmh SW 4.0 mph6.4 kmh 30.11 in1019.6 mb 0.00 in0.0 mm 0.00 in0.0 mm 0.00 in0.0 mm
09:41 AM 80.3°F26.8°C 73.3°F22.9°C 79% Calm Calm 3.0 mph4.8 kmh 30.11 in1019.6 mb 0.00 in0.0 mm 0.00 in0.0 mm 0.00 in0.0 mm
09:46 AM 80.9°F27.2°C 73.5°F23.1°C 78% 1.0 mph N1.6 kmh N 2.0 mph3.2 kmh 30.11 in1019.6 mb 0.00 in0.0 mm 0.00 in0.0 mm 0.00 in0.0 mm
09:51 AM 81.5°F27.5°C 73.4°F23.0°C 76% 1.6 mph SSW2.6 kmh SSW 3.0 mph4.8 kmh 30.11 in1019.6 mb 0.00 in0.0 mm 0.00 in0.0 mm 0.00 in0.0 mm
09:56 AM 81.3°F27.4°C 73.0°F22.8°C 76% 1.1 mph SW1.8 kmh SW 3.0 mph4.8 kmh 30.11 in1019.6 mb 0.00 in0.0 mm 0.00 in0.0 mm 0.00 in0.0 mm
10:01 AM 81.3°F27.4°C 73.6°F23.1°C 77% 2.0 mph SE3.2 kmh SE 3.0 mph4.8 kmh 30.11 in1019.6 mb 0.00 in0.0 mm 0.00 in0.0 mm 0.00 in0.0 mm
10:06 AM 81.8°F27.7°C 73.3°F22.9°C 75% 1.8 mph SE2.9 kmh SE 4.0 mph6.4 kmh 30.11 in1019.6 mb 0.00 in0.0 mm 0.00 in0.0 mm 0.00 in0.0 mm
10:11 AM 82.0°F27.8°C 73.5°F23.1°C 75% 1.5 mph WSW2.4 kmh WSW 4.0 mph6.4 kmh 30.11 in1019.6 mb 0.00 in0.0 mm 0.00 in0.0 mm 0.00 in0.0 mm
10:16 AM 82.9°F28.3°C 73.8°F23.2°C 74% 1.4 mph S2.3 kmh S 4.0 mph6.4 kmh 30.11 in1019.6 mb 0.00 in0.0 mm 0.00 in0.0 mm 0.00 in0.0 mm
10:21 AM 83.4°F28.6°C 74.0°F23.3°C 73% 1.8 mph SSE2.9 kmh SSE 5.0 mph8.0 kmh 30.11 in1019.6 mb 0.00 in0.0 mm 0.00 in0.0 mm 0.00 in0.0 mm
10:26 AM 83.0°F28.3°C 73.7°F23.2°C 73% 1.3 mph E2.1 kmh E 5.0 mph8.0 kmh 30.12 in1020.0 mb 0.00 in0.0 mm 0.00 in0.0 mm 0.00 in0.0 mm
10:31 AM 83.2°F28.4°C 73.9°F23.3°C 73% 1.4 mph SSW2.3 kmh SSW 5.0 mph8.0 kmh 30.11 in1019.6 mb 0.00 in0.0 mm 0.00 in0.0 mm 0.00 in0.0 mm
10:36 AM 83.6°F28.7°C 73.6°F23.1°C 72% 1.7 mph SE2.7 kmh SE 5.0 mph8.0 kmh 30.11 in1019.6 mb 0.00 in0.0 mm 0.00 in0.0 mm 0.00 in0.0 mm
10:41 AM 83.8°F28.8°C 73.6°F23.1°C 71% 3.1 mph SE5.0 kmh SE 7.0 mph11.3 kmh 30.11 in1019.6 mb 0.00 in0.0 mm 0.00 in0.0 mm 0.00 in0.0 mm
10:46 AM 83.8°F28.8°C 73.6°F23.1°C 71% 2.3 mph ESE3.7 kmh ESE 7.0 mph11.3 kmh 30.11 in1019.6 mb 0.00 in0.0 mm 0.00 in0.0 mm 0.00 in0.0 mm
10:51 AM 84.0°F28.9°C 73.8°F23.2°C 71% 1.4 mph SE2.3 kmh SE 7.0 mph11.3 kmh 30.12 in1020.0 mb 0.00 in0.0 mm 0.00 in0.0 mm 0.00 in0.0 mm
10:56 AM 84.8°F29.3°C 73.8°F23.2°C 69% 1.3 mph SW2.1 kmh SW 7.0 mph11.3 kmh 30.11 in1019.6 mb 0.00 in0.0 mm 0.00 in0.0 mm 0.00 in0.0 mm
11:01 AM 85.3°F29.6°C 73.5°F23.1°C 68% 1.4 mph SSE2.3 kmh SSE 5.0 mph8.0 kmh 30.11 in1019.6 mb 0.00 in0.0 mm 0.00 in0.0 mm 0.00 in0.0 mm
11:06 AM 85.7°F29.8°C 74.2°F23.4°C 68% 1.8 mph SW2.9 kmh SW 3.0 mph4.8 kmh 30.11 in1019.6 mb 0.00 in0.0 mm 0.00 in0.0 mm 0.00 in0.0 mm
11:11 AM 86.3°F30.2°C 74.3°F23.5°C 67% 1.1 mph SSE1.8 kmh SSE 3.0 mph4.8 kmh 30.11 in1019.6 mb 0.00 in0.0 mm 0.00 in0.0 mm 0.00 in0.0 mm
11:16 AM 86.7°F30.4°C 73.8°F23.2°C 65% 1.9 mph SE3.1 kmh SE 3.0 mph4.8 kmh 30.11 in1019.6 mb 0.00 in0.0 mm 0.00 in0.0 mm 0.00 in0.0 mm
11:21 AM 86.8°F30.4°C 74.4°F23.6°C 66% 1.0 mph W1.6 kmh W 3.0 mph4.8 kmh 30.11 in1019.6 mb 0.00 in0.0 mm 0.00 in0.0 mm 0.00 in0.0 mm
11:26 AM 86.9°F30.5°C 73.7°F23.2°C 65% 1.5 mph E2.4 kmh E 4.0 mph6.4 kmh 30.11 in1019.6 mb 0.00 in0.0 mm 0.00 in0.0 mm 0.00 in0.0 mm
11:31 AM 87.0°F30.6°C 73.3°F22.9°C 64% 1.8 mph ESE2.9 kmh ESE 4.0 mph6.4 kmh 30.11 in1019.6 mb 0.00 in0.0 mm 0.00 in0.0 mm 0.00 in0.0 mm
11:36 AM 86.9°F30.5°C 74.0°F23.3°C 65% 1.4 mph NE2.3 kmh NE 4.0 mph6.4 kmh 30.11 in1019.6 mb 0.00 in0.0 mm 0.00 in0.0 mm 0.00 in0.0 mm
11:41 AM 87.7°F30.9°C 74.3°F23.5°C 64% 1.6 mph NE2.6 kmh NE 4.0 mph6.4 kmh 30.10 in1019.3 mb 0.00 in0.0 mm 0.00 in0.0 mm 0.00 in0.0 mm
11:46 AM 87.7°F30.9°C 74.3°F23.5°C 64% 1.8 mph NNE2.9 kmh NNE 6.0 mph9.7 kmh 30.10 in1019.3 mb 0.00 in0.0 mm 0.00 in0.0 mm 0.00 in0.0 mm
11:51 AM 87.5°F30.8°C 73.6°F23.1°C 63% 2.1 mph NE3.4 kmh NE 6.0 mph9.7 kmh 30.10 in1019.3 mb 0.00 in0.0 mm 0.00 in0.0 mm 0.00 in0.0 mm
11:56 AM 88.0°F31.1°C 73.3°F22.9°C 62% 1.0 mph SW1.6 kmh SW 6.0 mph9.7 kmh 30.10 in1019.3 mb 0.00 in0.0 mm 0.00 in0.0 mm 0.00 in0.0 mm
12:01 PM 88.7°F31.5°C 73.8°F23.2°C 61% 1.8 mph SE2.9 kmh SE 4.0 mph6.4 kmh 30.10 in1019.3 mb 0.00 in0.0 mm 0.00 in0.0 mm 0.00 in0.0 mm
12:06 PM 88.4°F31.3°C 74.0°F23.3°C 62% 2.1 mph SE3.4 kmh SE 5.0 mph8.0 kmh 30.10 in1019.3 mb 0.00 in0.0 mm 0.00 in0.0 mm 0.00 in0.0 mm
12:11 PM 88.9°F31.6°C 73.5°F23.1°C 60% 1.0 mph WSW1.6 kmh WSW 5.0 mph8.0 kmh 30.10 in1019.3 mb 0.00 in0.0 mm 0.00 in0.0 mm 0.00 in0.0 mm
12:16 PM 88.9°F31.6°C 72.7°F22.6°C 59% 2.1 mph W3.4 kmh W 5.0 mph8.0 kmh 30.10 in1019.3 mb 0.00 in0.0 mm 0.00 in0.0 mm 0.00 in0.0 mm
12:21 PM 88.7°F31.5°C 73.3°F22.9°C 60% 1.4 mph W2.3 kmh W 5.0 mph8.0 kmh 30.10 in1019.3 mb 0.00 in0.0 mm 0.00 in0.0 mm 0.00 in0.0 mm
12:26 PM 89.0°F31.7°C 73.6°F23.1°C 60% 3.0 mph SE4.8 kmh SE 7.0 mph11.3 kmh 30.09 in1019.0 mb 0.00 in0.0 mm 0.00 in0.0 mm 0.00 in0.0 mm
12:31 PM 89.1°F31.7°C 73.2°F22.9°C 59% 2.1 mph ESE3.4 kmh ESE 7.0 mph11.3 kmh 30.09 in1019.0 mb 0.00 in0.0 mm 0.00 in0.0 mm 0.00 in0.0 mm
12:36 PM 89.2°F31.8°C 73.0°F22.8°C 59% 1.1 mph SE1.8 kmh SE 7.0 mph11.3 kmh 30.09 in1019.0 mb 0.00 in0.0 mm 0.00 in0.0 mm 0.00 in0.0 mm
12:41 PM 89.4°F31.9°C 73.5°F23.1°C 59% 2.0 mph SW3.2 kmh SW 7.0 mph11.3 kmh 30.09 in1019.0 mb 0.00 in0.0 mm 0.00 in0.0 mm 0.00 in0.0 mm
12:46 PM 89.5°F31.9°C 73.1°F22.8°C 58% 2.0 mph SW3.2 kmh SW 6.0 mph9.7 kmh 30.08 in1018.6 mb 0.00 in0.0 mm 0.00 in0.0 mm 0.00 in0.0 mm
12:51 PM 89.9°F32.2°C 73.4°F23.0°C 58% 3.1 mph NE5.0 kmh NE 5.0 mph8.0 kmh 30.08 in1018.6 mb 0.00 in0.0 mm 0.00 in0.0 mm 0.00 in0.0 mm
12:56 PM 89.6°F32.0°C 73.7°F23.2°C 59% 2.4 mph E3.9 kmh E 9.0 mph14.5 kmh 30.08 in1018.6 mb 0.00 in0.0 mm 0.00 in0.0 mm 0.00 in0.0 mm
01:01 PM 89.7°F32.1°C 74.0°F23.3°C 60% 4.6 mph ENE7.4 kmh ENE 9.0 mph14.5 kmh 30.08 in1018.6 mb 0.00 in0.0 mm 0.00 in0.0 mm 0.00 in0.0 mm
01:06 PM 89.9°F32.2°C 73.9°F23.3°C 59% 4.9 mph E7.9 kmh E 9.0 mph14.5 kmh 30.08 in1018.6 mb 0.00 in0.0 mm 0.00 in0.0 mm 0.00 in0.0 mm
01:11 PM 89.2°F31.8°C 73.8°F23.2°C 60% 4.2 mph ENE6.8 kmh ENE 9.0 mph14.5 kmh 30.08 in1018.6 mb 0.00 in0.0 mm 0.00 in0.0 mm 0.00 in0.0 mm
01:16 PM 88.7°F31.5°C 73.3°F22.9°C 60% 4.4 mph NE7.1 kmh NE 9.0 mph14.5 kmh 30.08 in1018.6 mb 0.00 in0.0 mm 0.00 in0.0 mm 0.00 in0.0 mm
01:21 PM 88.4°F31.3°C 73.5°F23.1°C 61% 3.8 mph NE6.1 kmh NE 9.0 mph14.5 kmh 30.08 in1018.6 mb 0.00 in0.0 mm 0.00 in0.0 mm 0.00 in0.0 mm
01:26 PM 88.5°F31.4°C 73.6°F23.1°C 61% 4.1 mph NE6.6 kmh NE 8.0 mph12.9 kmh 30.07 in1018.3 mb 0.00 in0.0 mm 0.00 in0.0 mm 0.00 in0.0 mm
01:32 PM 88.8°F31.6°C 73.4°F23.0°C 60% 2.6 mph ESE4.2 kmh ESE 8.0 mph12.9 kmh 30.07 in1018.3 mb 0.00 in0.0 mm 0.00 in0.0 mm 0.00 in0.0 mm
01:36 PM 88.9°F31.6°C 73.5°F23.1°C 60% 3.3 mph ENE5.3 kmh ENE 7.0 mph11.3 kmh 30.07 in1018.3 mb 0.00 in0.0 mm 0.00 in0.0 mm 0.00 in0.0 mm
01:41 PM 89.0°F31.7°C 73.6°F23.1°C 60% 5.0 mph NE8.0 kmh NE 8.0 mph12.9 kmh 30.07 in1018.3 mb 0.00 in0.0 mm 0.00 in0.0 mm 0.00 in0.0 mm
01:47 PM 89.2°F31.8°C 73.5°F23.1°C 60% 3.6 mph NE5.8 kmh NE 8.0 mph12.9 kmh 30.07 in1018.3 mb 0.00 in0.0 mm 0.00 in0.0 mm 0.00 in0.0 mm
01:51 PM 89.5°F31.9°C 73.6°F23.1°C 59% 1.9 mph E3.1 kmh E 8.0 mph12.9 kmh 30.07 in1018.3 mb 0.00 in0.0 mm 0.00 in0.0 mm 0.00 in0.0 mm
01:56 PM 89.7°F32.1°C 73.2°F22.9°C 58% 2.1 mph NE3.4 kmh NE 8.0 mph12.9 kmh 30.06 in1017.9 mb 0.00 in0.0 mm 0.00 in0.0 mm 0.00 in0.0 mm
02:02 PM 89.6°F32.0°C 73.4°F23.0°C 59% 1.6 mph NE2.6 kmh NE 7.0 mph11.3 kmh 30.06 in1017.9 mb 0.00 in0.0 mm 0.00 in0.0 mm 0.00 in0.0 mm
02:07 PM 89.7°F32.1°C 73.2°F22.9°C 58% 3.4 mph ESE5.5 kmh ESE 6.0 mph9.7 kmh 30.06 in1017.9 mb 0.00 in0.0 mm 0.00 in0.0 mm 0.00 in0.0 mm
02:11 PM 89.7°F32.1°C 73.2°F22.9°C 58% 1.4 mph ESE2.3 kmh ESE 6.0 mph9.7 kmh 30.06 in1017.9 mb 0.00 in0.0 mm 0.00 in0.0 mm 0.00 in0.0 mm
02:15 PM 90.3°F32.4°C 72.2°F22.3°C 55% 3.1 mph SSE5.0 kmh SSE 6.0 mph9.7 kmh 30.05 in1017.6 mb 0.00 in0.0 mm 0.00 in0.0 mm 0.00 in0.0 mm
02:21 PM 90.6°F32.6°C 72.5°F22.5°C 55% 2.7 mph E4.3 kmh E 7.0 mph11.3 kmh 30.05 in1017.6 mb 0.00 in0.0 mm 0.00 in0.0 mm 0.00 in0.0 mm
02:26 PM 90.8°F32.7°C 72.7°F22.6°C 55% 4.6 mph SSE7.4 kmh SSE 11.0 mph17.7 kmh 30.05 in1017.6 mb 0.00 in0.0 mm 0.00 in0.0 mm 0.00 in0.0 mm
02:31 PM 90.5°F32.5°C 72.4°F22.4°C 55% 5.2 mph SE8.4 kmh SE 11.0 mph17.7 kmh 30.05 in1017.6 mb 0.00 in0.0 mm 0.00 in0.0 mm 0.00 in0.0 mm
02:36 PM 90.1°F32.3°C 73.1°F22.8°C 57% 3.1 mph ENE5.0 kmh ENE 11.0 mph17.7 kmh 30.05 in1017.6 mb 0.00 in0.0 mm 0.00 in0.0 mm 0.00 in0.0 mm
02:41 PM 90.1°F32.3°C 72.6°F22.6°C 56% 4.2 mph E6.8 kmh E 11.0 mph17.7 kmh 30.05 in1017.6 mb 0.00 in0.0 mm 0.00 in0.0 mm 0.00 in0.0 mm
02:46 PM 90.0°F32.2°C 71.9°F22.2°C 55% 2.9 mph ENE4.7 kmh ENE 8.0 mph12.9 kmh 30.05 in1017.6 mb 0.00 in0.0 mm 0.00 in0.0 mm 0.00 in0.0 mm
02:51 PM 89.9°F32.2°C 72.4°F22.4°C 56% 1.9 mph NE3.1 kmh NE 7.0 mph11.3 kmh 30.05 in1017.6 mb 0.00 in0.0 mm 0.00 in0.0 mm 0.00 in0.0 mm
02:56 PM 89.8°F32.1°C 71.5°F21.9°C 55% 3.8 mph NE6.1 kmh NE 7.0 mph11.3 kmh 30.04 in1017.3 mb 0.00 in0.0 mm 0.00 in0.0 mm 0.00 in0.0 mm
03:01 PM 89.8°F32.1°C 71.7°F22.1°C 55% 2.8 mph NE4.5 kmh NE 7.0 mph11.3 kmh 30.04 in1017.3 mb 0.00 in0.0 mm 0.00 in0.0 mm 0.00 in0.0 mm
03:06 PM 89.9°F32.2°C 72.4°F22.4°C 56% 2.0 mph ENE3.2 kmh ENE 7.0 mph11.3 kmh 30.04 in1017.3 mb 0.00 in0.0 mm 0.00 in0.0 mm 0.00 in0.0 mm
03:11 PM 89.9°F32.2°C 72.4°F22.4°C 56% 3.1 mph NE5.0 kmh NE 7.0 mph11.3 kmh 30.05 in1017.6 mb 0.00 in0.0 mm 0.00 in0.0 mm 0.00 in0.0 mm
03:16 PM 89.8°F32.1°C 71.7°F22.1°C 55% 2.6 mph NE4.2 kmh NE 7.0 mph11.3 kmh 30.04 in1017.3 mb 0.00 in0.0 mm 0.00 in0.0 mm 0.00 in0.0 mm
03:21 PM 89.7°F32.1°C 71.6°F22.0°C 55% 3.3 mph E5.3 kmh E 7.0 mph11.3 kmh 30.05 in1017.6 mb 0.00 in0.0 mm 0.00 in0.0 mm 0.00 in0.0 mm
03:26 PM 89.7°F32.1°C 71.4°F21.9°C 55% 2.2 mph ENE3.5 kmh ENE 7.0 mph11.3 kmh 30.04 in1017.3 mb 0.00 in0.0 mm 0.00 in0.0 mm 0.00 in0.0 mm
03:31 PM 89.6°F32.0°C 71.8°F22.1°C 56% 1.8 mph E2.9 kmh E 7.0 mph11.3 kmh 30.05 in1017.6 mb 0.00 in0.0 mm 0.00 in0.0 mm 0.00 in0.0 mm
03:36 PM 88.8°F31.6°C 73.1°F22.8°C 60% 1.5 mph SSW2.4 kmh SSW 6.0 mph9.7 kmh 30.05 in1017.6 mb 0.01 in0.3 mm 0.12 in3.0 mm 0.01 in0.3 mm
03:41 PM 85.8°F29.9°C 75.6°F24.2°C 71% 1.5 mph SW2.4 kmh SW 5.0 mph8.0 kmh 30.06 in1017.9 mb 0.03 in0.8 mm 0.24 in6.1 mm 0.03 in0.8 mm
03:46 PM 82.4°F28.0°C 73.5°F23.1°C 74% 5.9 mph SW9.5 kmh SW 16.0 mph25.7 kmh 30.06 in1017.9 mb 0.08 in2.0 mm 0.60 in15.2 mm 0.08 in2.0 mm
03:51 PM 79.3°F26.3°C 71.6°F22.0°C 77% 8.8 mph WSW14.2 kmh WSW 22.0 mph35.4 kmh 30.06 in1017.9 mb 0.17 in4.3 mm 1.08 in27.4 mm 0.17 in4.3 mm
03:56 PM 79.3°F26.3°C 69.7°F20.9°C 72% 4.4 mph SW7.1 kmh SW 22.0 mph35.4 kmh 30.05 in1017.6 mb 0.19 in4.8 mm 0.24 in6.1 mm 0.19 in4.8 mm
04:01 PM 78.2°F25.7°C 69.8°F21.0°C 75% 4.1 mph SW6.6 kmh SW 22.0 mph35.4 kmh 30.05 in1017.6 mb 0.19 in4.8 mm 0.00 in0.0 mm 0.19 in4.8 mm
04:06 PM 78.1°F25.6°C 69.7°F20.9°C 75% 2.3 mph SW3.7 kmh SW 22.0 mph35.4 kmh 30.05 in1017.6 mb 0.19 in4.8 mm 0.00 in0.0 mm 0.19 in4.8 mm
04:11 PM 78.8°F26.0°C 71.5°F21.9°C 78% 2.6 mph SW4.2 kmh SW 12.0 mph19.3 kmh 30.05 in1017.6 mb 0.19 in4.8 mm 0.00 in0.0 mm 0.19 in4.8 mm
04:16 PM 80.1°F26.7°C 72.4°F22.4°C 77% 1.0 mph SW1.6 kmh SW 9.0 mph14.5 kmh 30.05 in1017.6 mb 0.19 in4.8 mm 0.00 in0.0 mm 0.19 in4.8 mm
04:21 PM 80.5°F26.9°C 73.0°F22.8°C 78% Calm Calm 6.0 mph9.7 kmh 30.05 in1017.6 mb 0.19 in4.8 mm 0.00 in0.0 mm 0.19 in4.8 mm
04:26 PM 81.7°F27.6°C 72.4°F22.4°C 73% 1.5 mph SW2.4 kmh SW 6.0 mph9.7 kmh 30.05 in1017.6 mb 0.19 in4.8 mm 0.00 in0.0 mm 0.19 in4.8 mm
04:31 PM 83.0°F28.3°C 72.4°F22.4°C 70% 1.1 mph SW1.8 kmh SW 4.0 mph6.4 kmh 30.06 in1017.9 mb 0.19 in4.8 mm 0.00 in0.0 mm 0.19 in4.8 mm
04:36 PM 83.9°F28.8°C 73.3°F22.9°C 70% 1.0 mph SW1.6 kmh SW 3.0 mph4.8 kmh 30.06 in1017.9 mb 0.18 in4.6 mm 0.00 in0.0 mm 0.19 in4.8 mm
04:41 PM 84.2°F29.0°C 73.2°F22.9°C 69% Calm Calm 3.0 mph4.8 kmh 30.06 in1017.9 mb 0.16 in4.1 mm 0.00 in0.0 mm 0.19 in4.8 mm
04:46 PM 84.9°F29.4°C 74.3°F23.5°C 70% 1.6 mph ESE2.6 kmh ESE 3.0 mph4.8 kmh 30.06 in1017.9 mb 0.11 in2.8 mm 0.00 in0.0 mm 0.19 in4.8 mm
04:51 PM 84.9°F29.4°C 74.3°F23.5°C 70% 1.8 mph E2.9 kmh E 3.0 mph4.8 kmh 30.06 in1017.9 mb 0.02 in0.5 mm 0.00 in0.0 mm 0.19 in4.8 mm
04:56 PM 85.3°F29.6°C 74.7°F23.7°C 70% 1.1 mph E1.8 kmh E 3.0 mph4.8 kmh 30.06 in1017.9 mb 0.00 in0.0 mm 0.00 in0.0 mm 0.19 in4.8 mm
05:01 PM 85.3°F29.6°C 77.8°F25.4°C 78% 1.0 mph E1.6 kmh E 3.0 mph4.8 kmh 30.06 in1017.9 mb 0.00 in0.0 mm 0.00 in0.0 mm 0.19 in4.8 mm
05:06 PM 84.5°F29.2°C 75.9°F24.4°C 75% 1.0 mph SE1.6 kmh SE 3.0 mph4.8 kmh 30.06 in1017.9 mb 0.00 in0.0 mm 0.00 in0.0 mm 0.19 in4.8 mm
05:11 PM 84.1°F28.9°C 74.5°F23.6°C 73% 1.1 mph SSE1.8 kmh SSE 2.0 mph3.2 kmh 30.06 in1017.9 mb 0.00 in0.0 mm 0.00 in0.0 mm 0.19 in4.8 mm
05:16 PM 83.6°F28.7°C 76.5°F24.7°C 79% 1.6 mph SSE2.6 kmh SSE 3.0 mph4.8 kmh 30.06 in1017.9 mb 0.00 in0.0 mm 0.00 in0.0 mm 0.19 in4.8 mm
05:21 PM 82.8°F28.2°C 75.8°F24.3°C 79% 1.6 mph S2.6 kmh S 4.0 mph6.4 kmh 30.06 in1017.9 mb 0.00 in0.0 mm 0.00 in0.0 mm 0.19 in4.8 mm
05:26 PM 82.4°F28.0°C 75.7°F24.3°C 80% 2.6 mph SE4.2 kmh SE 7.0 mph11.3 kmh 30.06 in1017.9 mb 0.00 in0.0 mm 0.00 in0.0 mm 0.19 in4.8 mm
05:31 PM 81.8°F27.7°C 74.6°F23.7°C 79% 2.1 mph S3.4 kmh S 7.0 mph11.3 kmh 30.06 in1017.9 mb 0.00 in0.0 mm 0.00 in0.0 mm 0.19 in4.8 mm
05:36 PM 81.4°F27.4°C 74.0°F23.3°C 78% 1.4 mph SSE2.3 kmh SSE 7.0 mph11.3 kmh 30.06 in1017.9 mb 0.00 in0.0 mm 0.00 in0.0 mm 0.19 in4.8 mm
05:41 PM 81.0°F27.2°C 74.4°F23.6°C 80% 1.0 mph SW1.6 kmh SW 7.0 mph11.3 kmh 30.06 in1017.9 mb 0.00 in0.0 mm 0.00 in0.0 mm 0.19 in4.8 mm
05:46 PM 80.6°F27.0°C 73.6°F23.1°C 79% 1.0 mph SW1.6 kmh SW 7.0 mph11.3 kmh 30.06 in1017.9 mb 0.00 in0.0 mm 0.00 in0.0 mm 0.19 in4.8 mm
05:51 PM 80.4°F26.9°C 73.4°F23.0°C 79% 1.0 mph SW1.6 kmh SW 6.0 mph9.7 kmh 30.05 in1017.6 mb 0.00 in0.0 mm 0.00 in0.0 mm 0.19 in4.8 mm
05:56 PM 80.2°F26.8°C 73.9°F23.3°C 81% 1.5 mph SW2.4 kmh SW 3.0 mph4.8 kmh 30.06 in1017.9 mb 0.00 in0.0 mm 0.00 in0.0 mm 0.19 in4.8 mm
06:01 PM 80.0°F26.7°C 74.4°F23.6°C 83% 1.6 mph WSW2.6 kmh WSW 3.0 mph4.8 kmh 30.07 in1018.3 mb 0.00 in0.0 mm 0.00 in0.0 mm 0.19 in4.8 mm
06:06 PM 79.7°F26.5°C 73.8°F23.2°C 82% 1.2 mph WSW1.9 kmh WSW 3.0 mph4.8 kmh 30.07 in1018.3 mb 0.00 in0.0 mm 0.00 in0.0 mm 0.19 in4.8 mm
06:11 PM 79.5°F26.4°C 74.0°F23.3°C 83% Calm Calm 3.0 mph4.8 kmh 30.07 in1018.3 mb 0.00 in0.0 mm 0.00 in0.0 mm 0.19 in4.8 mm
06:16 PM 79.3°F26.3°C 74.1°F23.4°C 84% Calm Calm 3.0 mph4.8 kmh 30.08 in1018.6 mb 0.00 in0.0 mm 0.00 in0.0 mm 0.19 in4.8 mm
06:21 PM 79.0°F26.1°C 74.2°F23.4°C 85% Calm Calm 2.0 mph3.2 kmh 30.08 in1018.6 mb 0.00 in0.0 mm 0.00 in0.0 mm 0.19 in4.8 mm
06:26 PM 78.9°F26.1°C 73.7°F23.2°C 84% 1.1 mph WSW1.8 kmh WSW 2.0 mph3.2 kmh 30.08 in1018.6 mb 0.00 in0.0 mm 0.00 in0.0 mm 0.19 in4.8 mm
06:31 PM 79.0°F26.1°C 73.5°F23.1°C 83% 1.0 mph SW1.6 kmh SW 2.0 mph3.2 kmh 30.08 in1018.6 mb 0.00 in0.0 mm 0.00 in0.0 mm 0.19 in4.8 mm
06:36 PM 79.1°F26.2°C 73.2°F22.9°C 82% Calm Calm 2.0 mph3.2 kmh 30.08 in1018.6 mb 0.00 in0.0 mm 0.00 in0.0 mm 0.19 in4.8 mm
06:41 PM 79.1°F26.2°C 73.9°F23.3°C 84% Calm Calm 2.0 mph3.2 kmh 30.08 in1018.6 mb 0.00 in0.0 mm 0.00 in0.0 mm 0.19 in4.8 mm
06:46 PM 79.0°F26.1°C 74.5°F23.6°C 86% Calm Calm 1.0 mph1.6 kmh 30.08 in1018.6 mb 0.00 in0.0 mm 0.00 in0.0 mm 0.19 in4.8 mm
06:51 PM 78.8°F26.0°C 73.2°F22.9°C 83% 1.0 mph SW1.6 kmh SW 1.0 mph1.6 kmh 30.08 in1018.6 mb 0.00 in0.0 mm 0.00 in0.0 mm 0.19 in4.8 mm
06:56 PM 79.2°F26.2°C 73.3°F22.9°C 82% 1.5 mph W2.4 kmh W 3.0 mph4.8 kmh 30.08 in1018.6 mb 0.00 in0.0 mm 0.00 in0.0 mm 0.19 in4.8 mm
07:01 PM 79.5°F26.4°C 73.6°F23.1°C 82% 1.0 mph W1.6 kmh W 3.0 mph4.8 kmh 30.08 in1018.6 mb 0.00 in0.0 mm 0.00 in0.0 mm 0.19 in4.8 mm
07:06 PM 79.4°F26.3°C 73.9°F23.3°C 83% Calm Calm 3.0 mph4.8 kmh 30.08 in1018.6 mb 0.00 in0.0 mm 0.00 in0.0 mm 0.19 in4.8 mm
07:10 PM 79.2°F26.2°C 73.6°F23.1°C 83% 1.2 mph W1.9 kmh W 3.0 mph4.8 kmh 30.09 in1019.0 mb 0.00 in0.0 mm 0.00 in0.0 mm 0.19 in4.8 mm
07:15 PM 79.2°F26.2°C 73.7°F23.2°C 83% Calm Calm 3.0 mph4.8 kmh 30.09 in1019.0 mb 0.00 in0.0 mm 0.00 in0.0 mm 0.19 in4.8 mm
07:20 PM 79.2°F26.2°C 73.7°F23.2°C 83% 1.0 mph W1.6 kmh W 2.0 mph3.2 kmh 30.09 in1019.0 mb 0.00 in0.0 mm 0.00 in0.0 mm 0.19 in4.8 mm
07:25 PM 79.4°F26.3°C 73.5°F23.1°C 82% 1.0 mph W1.6 kmh W 2.0 mph3.2 kmh 30.09 in1019.0 mb 0.00 in0.0 mm 0.00 in0.0 mm 0.19 in4.8 mm
07:30 PM 79.6°F26.4°C 73.3°F22.9°C 81% Calm Calm 1.0 mph1.6 kmh 30.09 in1019.0 mb 0.00 in0.0 mm 0.00 in0.0 mm 0.19 in4.8 mm
07:35 PM 79.5°F26.4°C 73.6°F23.1°C 82% 1.0 mph W1.6 kmh W 1.0 mph1.6 kmh 30.09 in1019.0 mb 0.00 in0.0 mm 0.00 in0.0 mm 0.19 in4.8 mm
07:40 PM 79.4°F26.3°C 73.9°F23.3°C 83% 1.0 mph N1.6 kmh N 1.0 mph1.6 kmh 30.08 in1018.6 mb 0.00 in0.0 mm 0.00 in0.0 mm 0.19 in4.8 mm
07:45 PM 79.4°F26.3°C 73.5°F23.1°C 82% Calm Calm 1.0 mph1.6 kmh 30.08 in1018.6 mb 0.00 in0.0 mm 0.00 in0.0 mm 0.19 in4.8 mm
07:50 PM 79.8°F26.6°C 73.9°F23.3°C 82% 1.0 mph N1.6 kmh N 1.0 mph1.6 kmh 30.08 in1018.6 mb 0.00 in0.0 mm 0.00 in0.0 mm 0.19 in4.8 mm
07:55 PM 79.8°F26.6°C 73.4°F23.0°C 81% Calm Calm 1.0 mph1.6 kmh 30.09 in1019.0 mb 0.00 in0.0 mm 0.00 in0.0 mm 0.19 in4.8 mm
08:00 PM 79.8°F26.6°C 73.5°F23.1°C 81% Calm Calm 1.0 mph1.6 kmh 30.09 in1019.0 mb 0.00 in0.0 mm 0.00 in0.0 mm 0.19 in4.8 mm
08:05 PM 79.8°F26.6°C 73.5°F23.1°C 81% Calm Calm 1.0 mph1.6 kmh 30.09 in1019.0 mb 0.00 in0.0 mm 0.00 in0.0 mm 0.19 in4.8 mm
08:10 PM 79.7°F26.5°C 73.5°F23.1°C 81% Calm Calm -- 30.09 in1019.0 mb 0.00 in0.0 mm 0.00 in0.0 mm 0.19 in4.8 mm
08:15 PM 79.7°F26.5°C 73.5°F23.1°C 81% Calm Calm -- 30.08 in1018.6 mb 0.00 in0.0 mm 0.00 in0.0 mm 0.19 in4.8 mm
08:20 PM 79.6°F26.4°C 73.4°F23.0°C 81% 1.0 mph N1.6 kmh N 1.0 mph1.6 kmh 30.08 in1018.6 mb 0.00 in0.0 mm 0.00 in0.0 mm 0.19 in4.8 mm
08:25 PM 79.6°F26.4°C 73.4°F23.0°C 81% Calm Calm 1.0 mph1.6 kmh 30.08 in1018.6 mb 0.00 in0.0 mm 0.00 in0.0 mm 0.19 in4.8 mm
08:30 PM 79.6°F26.4°C 73.3°F22.9°C 81% 1.3 mph NNW2.1 kmh NNW 3.0 mph4.8 kmh 30.08 in1018.6 mb 0.00 in0.0 mm 0.00 in0.0 mm 0.19 in4.8 mm
08:35 PM 79.4°F26.3°C 73.2°F22.9°C 81% 2.0 mph NW3.2 kmh NW 3.0 mph4.8 kmh 30.09 in1019.0 mb 0.00 in0.0 mm 0.00 in0.0 mm 0.19 in4.8 mm
08:40 PM 79.2°F26.2°C 73.3°F22.9°C 82% 1.6 mph WSW2.6 kmh WSW 3.0 mph4.8 kmh 30.09 in1019.0 mb 0.00 in0.0 mm 0.00 in0.0 mm 0.19 in4.8 mm
08:45 PM 79.0°F26.1°C 72.4°F22.4°C 80% 1.3 mph W2.1 kmh W 3.0 mph4.8 kmh 30.09 in1019.0 mb 0.00 in0.0 mm 0.00 in0.0 mm 0.19 in4.8 mm
08:50 PM 79.1°F26.2°C 72.5°F22.5°C 80% Calm Calm 3.0 mph4.8 kmh 30.09 in1019.0 mb 0.00 in0.0 mm 0.00 in0.0 mm 0.19 in4.8 mm
08:55 PM 79.1°F26.2°C 72.2°F22.3°C 79% Calm Calm 3.0 mph4.8 kmh 30.09 in1019.0 mb 0.00 in0.0 mm 0.00 in0.0 mm 0.19 in4.8 mm
09:00 PM 79.0°F26.1°C 72.1°F22.3°C 79% Calm Calm 3.0 mph4.8 kmh 30.09 in1019.0 mb 0.00 in0.0 mm 0.00 in0.0 mm 0.19 in4.8 mm
09:05 PM 79.0°F26.1°C 72.1°F22.3°C 79% Calm Calm 1.0 mph1.6 kmh 30.09 in1019.0 mb 0.00 in0.0 mm 0.00 in0.0 mm 0.19 in4.8 mm
09:10 PM 79.1°F26.2°C 72.4°F22.4°C 80% Calm Calm 1.0 mph1.6 kmh 30.09 in1019.0 mb 0.00 in0.0 mm 0.00 in0.0 mm 0.19 in4.8 mm
09:15 PM 78.6°F25.9°C 73.4°F23.0°C 84% 1.3 mph E2.1 kmh E 3.0 mph4.8 kmh 30.10 in1019.3 mb 0.00 in0.0 mm 0.00 in0.0 mm 0.19 in4.8 mm
09:20 PM 78.1°F25.6°C 72.9°F22.7°C 84% 1.5 mph NE2.4 kmh NE 3.0 mph4.8 kmh 30.10 in1019.3 mb 0.00 in0.0 mm 0.00 in0.0 mm 0.19 in4.8 mm
09:25 PM 78.2°F25.7°C 72.7°F22.6°C 83% Calm Calm 3.0 mph4.8 kmh 30.10 in1019.3 mb 0.00 in0.0 mm 0.00 in0.0 mm 0.19 in4.8 mm
09:30 PM 78.3°F25.7°C 72.4°F22.4°C 82% Calm Calm 3.0 mph4.8 kmh 30.10 in1019.3 mb 0.00 in0.0 mm 0.00 in0.0 mm 0.19 in4.8 mm
09:35 PM 78.5°F25.8°C 72.6°F22.6°C 82% Calm Calm 2.0 mph3.2 kmh 30.10 in1019.3 mb 0.00 in0.0 mm 0.00 in0.0 mm 0.19 in4.8 mm
09:40 PM 78.5°F25.8°C 72.6°F22.6°C 82% 1.0 mph NE1.6 kmh NE 1.0 mph1.6 kmh 30.10 in1019.3 mb 0.00 in0.0 mm 0.00 in0.0 mm 0.19 in4.8 mm
09:45 PM 78.4°F25.8°C 72.8°F22.7°C 83% Calm Calm 1.0 mph1.6 kmh 30.10 in1019.3 mb 0.00 in0.0 mm 0.00 in0.0 mm 0.19 in4.8 mm
09:50 PM 78.3°F25.7°C 72.8°F22.7°C 83% Calm Calm 1.0 mph1.6 kmh 30.10 in1019.3 mb 0.00 in0.0 mm 0.00 in0.0 mm 0.19 in4.8 mm
09:55 PM 78.0°F25.6°C 72.5°F22.5°C 83% Calm Calm 1.0 mph1.6 kmh 30.10 in1019.3 mb 0.00 in0.0 mm 0.00 in0.0 mm 0.19 in4.8 mm
10:00 PM 78.1°F25.6°C 72.2°F22.3°C 82% Calm Calm -- 30.10 in1019.3 mb 0.00 in0.0 mm 0.00 in0.0 mm 0.19 in4.8 mm
10:05 PM 78.1°F25.6°C 72.2°F22.3°C 82% Calm Calm -- 30.10 in1019.3 mb 0.00 in0.0 mm 0.00 in0.0 mm 0.19 in4.8 mm
10:10 PM 78.2°F25.7°C 72.3°F22.4°C 82% Calm Calm -- 30.10 in1019.3 mb 0.00 in0.0 mm 0.00 in0.0 mm 0.19 in4.8 mm
10:15 PM 78.1°F25.6°C 72.2°F22.3°C 82% Calm Calm -- 30.11 in1019.6 mb 0.00 in0.0 mm 0.00 in0.0 mm 0.19 in4.8 mm
10:20 PM 78.1°F25.6°C 72.2°F22.3°C 82% Calm Calm -- 30.11 in1019.6 mb 0.00 in0.0 mm 0.00 in0.0 mm 0.19 in4.8 mm
10:25 PM 78.0°F25.6°C 72.1°F22.3°C 82% Calm Calm -- 30.11 in1019.6 mb 0.00 in0.0 mm 0.00 in0.0 mm 0.19 in4.8 mm
10:30 PM 77.9°F25.5°C 72.0°F22.2°C 82% Calm Calm -- 30.11 in1019.6 mb 0.00 in0.0 mm 0.00 in0.0 mm 0.19 in4.8 mm
10:35 PM 77.8°F25.4°C 71.9°F22.2°C 82% Calm Calm -- 30.11 in1019.6 mb 0.00 in0.0 mm 0.00 in0.0 mm 0.19 in4.8 mm
10:40 PM 77.9°F25.5°C 72.4°F22.4°C 83% Calm Calm -- 30.11 in1019.6 mb 0.00 in0.0 mm 0.00 in0.0 mm 0.19 in4.8 mm
10:45 PM 77.6°F25.3°C 72.4°F22.4°C 84% Calm Calm -- 30.11 in1019.6 mb 0.00 in0.0 mm 0.00 in0.0 mm 0.19 in4.8 mm
10:50 PM 77.4°F25.2°C 72.6°F22.6°C 85% Calm Calm -- 30.11 in1019.6 mb 0.00 in0.0 mm 0.00 in0.0 mm 0.19 in4.8 mm
10:55 PM 77.2°F25.1°C 72.4°F22.4°C 85% Calm Calm -- 30.11 in1019.6 mb 0.00 in0.0 mm 0.00 in0.0 mm 0.19 in4.8 mm
11:00 PM 77.2°F25.1°C 72.0°F22.2°C 84% Calm Calm -- 30.11 in1019.6 mb 0.00 in0.0 mm 0.00 in0.0 mm 0.19 in4.8 mm
11:05 PM 77.5°F25.3°C 72.0°F22.2°C 83% Calm Calm -- 30.11 in1019.6 mb 0.00 in0.0 mm 0.00 in0.0 mm 0.19 in4.8 mm
11:10 PM 77.7°F25.4°C 72.2°F22.3°C 83% Calm Calm -- 30.11 in1019.6 mb 0.00 in0.0 mm 0.00 in0.0 mm 0.19 in4.8 mm
11:15 PM 77.7°F25.4°C 72.2°F22.3°C 83% Calm Calm -- 30.11 in1019.6 mb 0.00 in0.0 mm 0.00 in0.0 mm 0.19 in4.8 mm
11:20 PM 77.7°F25.4°C 71.4°F21.9°C 81% 1.5 mph S2.4 kmh S 2.0 mph3.2 kmh 30.11 in1019.6 mb 0.00 in0.0 mm 0.00 in0.0 mm 0.19 in4.8 mm
11:25 PM 78.3°F25.7°C 71.4°F21.9°C 79% 2.8 mph S4.5 kmh S 8.0 mph12.9 kmh 30.11 in1019.6 mb 0.00 in0.0 mm 0.00 in0.0 mm 0.19 in4.8 mm
11:30 PM 78.7°F25.9°C 71.0°F21.7°C 77% 3.5 mph SSE5.6 kmh SSE 8.0 mph12.9 kmh 30.11 in1019.6 mb 0.00 in0.0 mm 0.00 in0.0 mm 0.19 in4.8 mm
11:35 PM 78.8°F26.0°C 70.6°F21.4°C 76% 3.3 mph SE5.3 kmh SE 8.0 mph12.9 kmh 30.11 in1019.6 mb 0.00 in0.0 mm 0.00 in0.0 mm 0.19 in4.8 mm
11:40 PM 78.7°F25.9°C 70.7°F21.5°C 76% 3.0 mph SE4.8 kmh SE 8.0 mph12.9 kmh 30.11 in1019.6 mb 0.00 in0.0 mm 0.00 in0.0 mm 0.19 in4.8 mm
11:45 PM 78.5°F25.8°C 70.5°F21.4°C 76% 3.3 mph SE5.3 kmh SE 8.0 mph12.9 kmh 30.11 in1019.6 mb 0.00 in0.0 mm 0.00 in0.0 mm 0.19 in4.8 mm
11:50 PM 78.4°F25.8°C 70.4°F21.3°C 76% 2.8 mph SE4.5 kmh SE 8.0 mph12.9 kmh 30.12 in1020.0 mb 0.00 in0.0 mm 0.00 in0.0 mm 0.19 in4.8 mm
11:55 PM 78.2°F25.7°C 70.2°F21.2°C 76% 2.1 mph SE3.4 kmh SE 8.0 mph12.9 kmh 30.12 in1020.0 mb 0.00 in0.0 mm 0.00 in0.0 mm 0.19 in4.8 mm